createdAt,value
2024-05-09T00:00:35.327Z,7.52
2024-05-09T00:03:19.303Z,7.50
2024-05-09T00:05:59.763Z,7.47
2024-05-09T00:08:40.506Z,7.43
2024-05-09T00:11:21.167Z,7.38
2024-05-09T00:14:02.160Z,7.34
2024-05-09T00:16:42.582Z,7.30
2024-05-09T00:19:23.176Z,7.23
2024-05-09T00:22:03.557Z,7.14
2024-05-09T00:24:44.019Z,7.12
2024-05-09T00:27:25.411Z,7.09
2024-05-09T00:30:07.265Z,7.06
2024-05-09T00:32:47.804Z,7.06
2024-05-09T00:35:28.461Z,7.03
2024-05-09T00:38:09.882Z,6.99
2024-05-09T00:40:50.294Z,6.96
2024-05-09T00:43:30.406Z,6.92
2024-05-09T00:46:11.068Z,6.86
2024-05-09T00:48:51.657Z,6.84
2024-05-09T00:51:32.114Z,6.73
2024-05-09T00:54:12.512Z,6.66
2024-05-09T00:56:53.052Z,6.62
2024-05-09T00:59:33.867Z,6.60
2024-05-09T01:02:16.019Z,6.60
2024-05-09T01:04:56.644Z,6.58
2024-05-09T01:07:37.339Z,6.61
2024-05-09T01:10:24.151Z,6.60
2024-05-09T01:13:11.669Z,6.53
2024-05-09T01:15:54.002Z,6.45
2024-05-09T01:18:34.740Z,6.42
2024-05-09T01:21:15.230Z,6.45
2024-05-09T01:23:55.290Z,6.39
2024-05-09T01:26:35.413Z,6.34
2024-05-09T01:29:15.915Z,6.27
2024-05-09T01:31:59.232Z,6.27
2024-05-09T01:34:39.594Z,6.24
2024-05-09T01:37:20.136Z,6.23
2024-05-09T01:40:00.376Z,6.18
2024-05-09T01:42:40.814Z,6.18
2024-05-09T01:45:21.235Z,6.16
2024-05-09T01:48:01.981Z,6.17
2024-05-09T01:50:43.462Z,6.12
2024-05-09T01:53:24.173Z,6.03
2024-05-09T01:56:05.100Z,6.03
2024-05-09T01:58:46.267Z,6.03
2024-05-09T02:01:26.982Z,6.00
2024-05-09T02:04:07.731Z,6.01
2024-05-09T02:06:48.194Z,6.05
2024-05-09T02:09:28.553Z,6.13
2024-05-09T02:12:09.742Z,6.11
2024-05-09T02:14:51.658Z,6.06
2024-05-09T02:17:32.335Z,6.01
2024-05-09T02:20:18.967Z,5.99
2024-05-09T02:23:08.721Z,5.98
2024-05-09T02:25:49.513Z,5.99
2024-05-09T02:28:30.090Z,5.96
2024-05-09T02:31:13.647Z,5.97
2024-05-09T02:33:54.462Z,5.90
2024-05-09T02:36:34.802Z,5.92
2024-05-09T02:39:15.060Z,5.83
2024-05-09T02:41:55.734Z,5.69
2024-05-09T02:44:36.205Z,5.73
2024-05-09T02:47:16.612Z,5.76
2024-05-09T02:49:57.166Z,5.57
2024-05-09T02:52:37.609Z,5.56
2024-05-09T02:55:17.854Z,5.56
2024-05-09T02:57:58.221Z,5.55
2024-05-09T03:00:41.625Z,5.51
2024-05-09T03:03:23.503Z,5.49
2024-05-09T03:06:04.576Z,5.44
2024-05-09T03:08:48.310Z,5.37
2024-05-09T03:11:29.016Z,5.27
2024-05-09T03:14:09.674Z,5.28
2024-05-09T03:16:50.272Z,5.26
2024-05-09T03:19:30.988Z,5.25
2024-05-09T03:22:12.557Z,5.28
2024-05-09T03:24:53.095Z,5.22
2024-05-09T03:27:33.453Z,5.17
2024-05-09T03:30:25.995Z,5.15
2024-05-09T03:33:17.390Z,5.13
2024-05-09T03:35:59.397Z,5.12
2024-05-09T03:38:42.668Z,5.15
2024-05-09T03:41:23.172Z,5.13
2024-05-09T03:44:04.784Z,5.15
2024-05-09T03:46:44.884Z,5.11
2024-05-09T03:49:25.214Z,5.15
2024-05-09T03:52:06.088Z,5.17
2024-05-09T03:54:49.368Z,5.20
2024-05-09T03:57:29.676Z,5.20
2024-05-09T04:00:17.649Z,5.20
2024-05-09T04:03:03.786Z,5.19
2024-05-09T04:05:44.970Z,5.19
2024-05-09T04:08:25.348Z,5.25
2024-05-09T04:11:06.799Z,5.33
2024-05-09T04:13:46.941Z,5.26
2024-05-09T04:16:27.415Z,5.22
2024-05-09T04:19:07.747Z,5.25
2024-05-09T04:21:48.250Z,5.22
2024-05-09T04:24:28.620Z,5.24
2024-05-09T04:27:09.034Z,5.26
2024-05-09T04:29:49.323Z,5.27
2024-05-09T04:32:30.296Z,5.33
2024-05-09T04:35:10.799Z,5.39
2024-05-09T04:37:51.104Z,5.42
2024-05-09T04:40:35.066Z,5.51
2024-05-09T04:43:19.578Z,5.58
2024-05-09T04:45:59.946Z,5.68
2024-05-09T04:48:40.506Z,5.74
2024-05-09T04:51:20.835Z,5.79
2024-05-09T04:54:01.642Z,5.87
2024-05-09T04:56:42.352Z,5.92
2024-05-09T04:59:22.701Z,5.97
2024-05-09T05:02:03.368Z,6.06
2024-05-09T05:04:43.774Z,6.11
2024-05-09T05:07:24.237Z,6.17
2024-05-09T05:10:05.940Z,6.19
2024-05-09T05:13:04.228Z,6.27
2024-05-09T05:15:45.420Z,6.37
2024-05-09T05:18:27.848Z,6.46
2024-05-09T05:21:08.408Z,6.52
2024-05-09T05:23:49.187Z,6.64
2024-05-09T05:26:29.889Z,6.69
2024-05-09T05:29:10.047Z,6.88
2024-05-09T05:31:50.697Z,6.95
2024-05-09T05:34:31.499Z,7.02
2024-05-09T05:37:11.960Z,7.09
2024-05-09T05:39:52.199Z,7.15
2024-05-09T05:42:32.812Z,7.23
2024-05-09T05:45:13.488Z,7.33
2024-05-09T05:47:54.969Z,7.43
2024-05-09T05:50:37.846Z,7.54
2024-05-09T05:53:19.039Z,7.63
2024-05-09T05:55:59.388Z,7.68
2024-05-09T05:58:39.521Z,7.77
2024-05-09T06:01:20.003Z,7.85
2024-05-09T06:04:00.635Z,7.98
2024-05-09T06:06:40.836Z,8.08
2024-05-09T06:09:21.187Z,8.19
2024-05-09T06:12:02.048Z,8.30
2024-05-09T06:14:42.576Z,8.36
2024-05-09T06:17:23.230Z,8.44
2024-05-09T06:20:04.670Z,8.59
2024-05-09T06:22:47.487Z,8.69
2024-05-09T06:25:27.734Z,8.80
2024-05-09T06:28:08.182Z,8.96
2024-05-09T06:30:48.876Z,9.08
2024-05-09T06:33:29.416Z,9.18
2024-05-09T06:36:10.097Z,9.32
2024-05-09T06:38:50.868Z,9.49
2024-05-09T06:41:31.732Z,9.61
2024-05-09T06:44:12.269Z,9.82
2024-05-09T06:46:54.628Z,9.90
2024-05-09T06:49:37.727Z,10.07
2024-05-09T06:52:19.386Z,10.20
2024-05-09T06:54:59.744Z,10.31
2024-05-09T06:57:42.957Z,10.48
2024-05-09T07:00:30.600Z,10.62
2024-05-09T07:03:19.428Z,10.74
2024-05-09T07:06:00.009Z,10.89
2024-05-09T07:08:41.294Z,11.15
2024-05-09T07:11:22.122Z,11.32
2024-05-09T07:14:02.877Z,11.46
2024-05-09T07:16:43.369Z,11.66
2024-05-09T07:19:23.628Z,11.73
2024-05-09T07:22:04.430Z,11.83
2024-05-09T07:24:45.061Z,11.94
2024-05-09T07:27:27.958Z,12.15
2024-05-09T07:30:09.353Z,12.34
2024-05-09T07:32:52.433Z,12.45
2024-05-09T07:35:33.373Z,12.67
2024-05-09T07:38:14.075Z,12.83
2024-05-09T07:40:54.204Z,13.05
2024-05-09T07:43:34.451Z,13.28
2024-05-09T07:50:35.690Z,13.72
2024-05-09T07:53:22.060Z,13.95
2024-05-09T07:54:59.890Z,14.05
2024-05-09T07:57:40.316Z,14.23
2024-05-09T08:00:27.239Z,14.42
2024-05-09T08:03:11.719Z,14.46
2024-05-09T08:05:52.394Z,14.66
2024-05-09T08:08:32.465Z,14.79
2024-05-09T08:11:13.121Z,15.00
2024-05-09T08:13:53.505Z,15.03
2024-05-09T08:16:33.956Z,15.34
2024-05-09T08:19:14.297Z,15.48
2024-05-09T08:21:55.163Z,15.67
2024-05-09T08:24:38.200Z,15.72
2024-05-09T08:27:18.435Z,15.82
2024-05-09T08:29:59.311Z,16.03
2024-05-09T08:32:40.494Z,16.23
2024-05-09T08:35:21.764Z,16.25
2024-05-09T08:38:07.135Z,16.30
2024-05-09T08:40:48.850Z,16.45
2024-05-09T08:43:29.860Z,16.55
2024-05-09T08:46:13.116Z,16.78
2024-05-09T08:48:56.568Z,17.09
2024-05-09T08:51:37.548Z,17.32
2024-05-09T08:54:19.866Z,17.72
2024-05-09T08:57:01.248Z,18.07
2024-05-09T08:59:47.575Z,18.51
2024-05-09T09:02:28.578Z,18.69
2024-05-09T09:05:17.054Z,18.94
2024-05-09T09:07:57.532Z,18.90
2024-05-09T09:10:39.747Z,18.92
2024-05-09T09:13:20.285Z,18.92
2024-05-09T09:16:02.902Z,18.75
2024-05-09T09:21:24.978Z,18.35
2024-05-09T09:24:06.997Z,18.37
2024-05-09T09:26:48.407Z,18.24
2024-05-09T09:29:31.221Z,18.43
2024-05-09T09:32:11.921Z,18.50
2024-05-09T09:34:52.254Z,18.42
2024-05-09T09:37:34.963Z,18.51
2024-05-09T09:40:29.285Z,18.40
2024-05-09T09:43:20.017Z,18.54
2024-05-09T09:46:02.034Z,18.42
2024-05-09T09:48:43.914Z,18.48
2024-05-09T09:51:25.627Z,18.53
2024-05-09T09:54:07.559Z,18.42
2024-05-09T09:56:49.110Z,18.50
2024-05-09T09:59:30.321Z,18.77
2024-05-09T10:02:12.788Z,18.77
2024-05-09T10:04:54.087Z,18.96
2024-05-09T10:07:39.008Z,19.07
2024-05-09T10:10:30.389Z,19.30
2024-05-09T10:13:13.062Z,19.31
2024-05-09T10:15:54.613Z,19.56
2024-05-09T10:18:39.868Z,19.93
2024-05-09T10:21:20.816Z,20.16
2024-05-09T10:24:05.105Z,20.64
2024-05-09T10:26:53.050Z,20.76
2024-05-09T10:29:33.374Z,20.80
2024-05-09T10:32:14.023Z,20.51
2024-05-09T10:35:01.143Z,20.02
2024-05-09T10:37:41.824Z,19.54
2024-05-09T10:40:26.627Z,19.35
2024-05-09T10:43:19.320Z,19.06
2024-05-09T10:45:59.957Z,18.93
2024-05-09T10:48:42.757Z,19.48
2024-05-09T10:51:23.002Z,19.72
2024-05-09T10:54:03.473Z,19.71
2024-05-09T10:56:43.821Z,19.75
2024-05-09T10:59:23.927Z,19.91
2024-05-09T11:02:05.185Z,20.05
2024-05-09T11:04:46.009Z,20.30
2024-05-09T11:07:26.618Z,20.35
2024-05-09T11:10:09.859Z,20.28
2024-05-09T11:12:52.717Z,20.36
2024-05-09T11:15:42.592Z,20.49
2024-05-09T11:18:25.875Z,20.53
2024-05-09T11:21:14.047Z,20.67
2024-05-09T11:23:54.928Z,20.63
2024-05-09T11:26:35.415Z,20.80
2024-05-09T11:29:18.720Z,21.26
2024-05-09T11:31:59.568Z,21.53
2024-05-09T11:34:44.173Z,21.89
2024-05-09T11:37:24.469Z,22.26
2024-05-09T11:40:09.255Z,22.03
2024-05-09T11:42:53.144Z,22.39
2024-05-09T11:48:14.008Z,23.09
2024-05-09T11:50:55.376Z,22.32
2024-05-09T11:53:35.818Z,22.19
2024-05-09T11:56:17.542Z,21.78
2024-05-09T11:58:57.857Z,21.08
2024-05-09T12:01:38.440Z,21.61
2024-05-09T12:04:18.791Z,21.93
2024-05-09T12:06:59.809Z,22.75
2024-05-09T12:09:40.595Z,23.67
2024-05-09T12:12:21.108Z,24.72
2024-05-09T12:15:01.373Z,25.67
2024-05-09T12:17:42.157Z,26.44
2024-05-09T12:20:28.849Z,27.63
2024-05-09T12:23:16.078Z,27.90
2024-05-09T12:25:56.665Z,28.63
2024-05-09T12:28:37.502Z,29.04
2024-05-09T12:31:17.769Z,29.86
2024-05-09T12:34:00.350Z,30.16
2024-05-09T12:36:40.926Z,30.50
2024-05-09T12:39:21.128Z,31.52
2024-05-09T12:42:01.661Z,31.29
2024-05-09T12:44:42.010Z,32.33
2024-05-09T12:47:22.711Z,32.12
2024-05-09T12:50:04.926Z,32.02
2024-05-09T12:52:45.366Z,31.89
2024-05-09T12:55:26.013Z,30.40
2024-05-09T12:58:07.004Z,27.61
2024-05-09T13:00:47.888Z,30.36
2024-05-09T13:03:28.330Z,31.77
2024-05-09T13:06:08.921Z,33.89
2024-05-09T13:08:49.054Z,33.88
2024-05-09T13:11:29.760Z,34.74
2024-05-09T13:14:10.087Z,32.53
2024-05-09T13:16:50.517Z,32.32
2024-05-09T13:19:30.735Z,30.01
2024-05-09T13:22:11.259Z,30.76
2024-05-09T13:24:51.530Z,32.35
2024-05-09T13:27:31.992Z,32.56
2024-05-09T13:30:17.898Z,32.98
2024-05-09T13:33:07.482Z,33.39
2024-05-09T13:35:50.535Z,33.23
2024-05-09T13:38:31.915Z,33.70
2024-05-09T13:41:12.401Z,35.22
2024-05-09T13:43:53.738Z,34.16
2024-05-09T13:46:34.440Z,34.64
2024-05-09T13:49:17.026Z,34.40
2024-05-09T13:51:57.986Z,35.05
2024-05-09T13:54:38.075Z,36.12
2024-05-09T13:57:18.854Z,36.34
2024-05-09T13:59:59.294Z,34.71
2024-05-09T14:02:40.281Z,35.64
2024-05-09T14:05:21.009Z,36.47
2024-05-09T14:08:01.531Z,37.40
2024-05-09T14:10:44.687Z,38.67
2024-05-09T14:13:25.281Z,37.54
2024-05-09T14:16:06.415Z,36.61
2024-05-09T14:18:46.786Z,36.34
2024-05-09T14:21:27.094Z,34.92
2024-05-09T14:24:07.450Z,36.91
2024-05-09T14:26:48.612Z,33.76
2024-05-09T14:29:30.031Z,32.98
2024-05-09T14:32:10.528Z,32.81
2024-05-09T14:34:50.904Z,31.00
2024-05-09T14:37:31.276Z,29.49
2024-05-09T14:40:25.972Z,28.87
2024-05-09T14:43:13.772Z,28.34
2024-05-09T14:45:56.003Z,31.11
2024-05-09T14:48:36.638Z,28.44
2024-05-09T14:51:17.606Z,27.03
2024-05-09T14:53:57.854Z,26.04
2024-05-09T14:56:38.436Z,25.97
2024-05-09T14:59:18.793Z,25.86
2024-05-09T15:01:59.537Z,29.35
2024-05-09T15:04:39.998Z,31.26
2024-05-09T15:07:20.553Z,32.72
2024-05-09T15:10:00.993Z,33.07
2024-05-09T15:12:41.393Z,33.30
2024-05-09T15:15:21.641Z,33.70
2024-05-09T15:18:03.561Z,32.25
2024-05-09T15:20:44.887Z,31.81
2024-05-09T15:23:25.725Z,32.31
2024-05-09T15:26:06.048Z,32.95
2024-05-09T15:28:46.362Z,32.69
2024-05-09T15:31:26.925Z,33.55
2024-05-09T15:34:08.376Z,31.20
2024-05-09T15:36:51.223Z,31.57
2024-05-09T15:39:32.158Z,32.67
2024-05-09T15:42:12.571Z,31.66
2024-05-09T15:44:53.156Z,32.17
2024-05-09T15:47:34.252Z,32.50
2024-05-09T15:50:20.569Z,33.64
2024-05-09T15:53:10.193Z,33.21
2024-05-09T15:55:51.196Z,34.42
2024-05-09T15:58:31.779Z,34.38
2024-05-09T16:01:14.322Z,33.31
2024-05-09T16:03:55.054Z,32.68
2024-05-09T16:06:35.921Z,32.24
2024-05-09T16:09:16.314Z,32.39
2024-05-09T16:11:56.696Z,30.79
2024-05-09T16:14:37.218Z,29.85
2024-05-09T16:17:17.720Z,31.23
2024-05-09T16:19:58.241Z,31.20
2024-05-09T16:22:38.785Z,31.16
2024-05-09T16:25:19.221Z,31.81
2024-05-09T16:27:59.825Z,31.65
2024-05-09T16:30:40.292Z,31.48
2024-05-09T16:33:23.884Z,32.35
2024-05-09T16:36:05.119Z,32.53
2024-05-09T16:38:45.888Z,32.36
2024-05-09T16:41:26.419Z,32.62
2024-05-09T16:44:06.607Z,32.96
2024-05-09T16:46:47.229Z,31.31
2024-05-09T16:49:27.653Z,29.68
2024-05-09T16:52:08.246Z,28.61
2024-05-09T16:54:48.476Z,26.95
2024-05-09T16:57:29.044Z,26.57
2024-05-09T17:00:17.717Z,26.17
2024-05-09T17:03:02.672Z,25.60
2024-05-09T17:05:45.957Z,25.13
2024-05-09T17:08:27.507Z,25.09
2024-05-09T17:11:08.261Z,26.54
2024-05-09T17:13:48.461Z,27.51
2024-05-09T17:16:30.552Z,28.32
2024-05-09T17:19:11.721Z,28.77
2024-05-09T17:21:52.412Z,28.51
2024-05-09T17:24:32.981Z,28.27
2024-05-09T17:27:13.870Z,28.31
2024-05-09T17:29:54.712Z,27.74
2024-05-09T17:32:35.277Z,27.77
2024-05-09T17:35:15.464Z,27.52
2024-05-09T17:37:56.651Z,27.44
2024-05-09T17:40:38.583Z,26.93
2024-05-09T17:43:19.702Z,26.80
2024-05-09T17:46:00.354Z,26.76
2024-05-09T17:48:40.698Z,26.29
2024-05-09T17:51:21.539Z,25.99
2024-05-09T17:54:02.058Z,25.63
2024-05-09T17:56:42.292Z,25.20
2024-05-09T17:59:22.444Z,24.82
2024-05-09T18:02:03.224Z,24.54
2024-05-09T18:04:43.699Z,24.86
2024-05-09T18:07:24.415Z,24.79
2024-05-09T18:10:10.219Z,24.81
2024-05-09T18:12:56.456Z,24.40
2024-05-09T18:15:37.838Z,24.17
2024-05-09T18:18:18.588Z,23.70
2024-05-09T18:20:58.875Z,23.62
2024-05-09T18:23:38.941Z,23.30
2024-05-09T18:26:19.772Z,22.81
2024-05-09T18:29:00.161Z,22.33
2024-05-09T18:31:40.608Z,22.00
2024-05-09T18:34:21.105Z,21.56
2024-05-09T18:37:04.322Z,20.90
2024-05-09T18:39:44.911Z,20.68
2024-05-09T18:42:25.211Z,20.16
2024-05-09T18:45:06.118Z,19.83
2024-05-09T18:47:46.867Z,19.57
2024-05-09T18:50:34.784Z,19.23
2024-05-09T18:53:18.643Z,18.92
2024-05-09T18:55:59.229Z,18.71
2024-05-09T18:58:39.447Z,18.59
2024-05-09T19:01:20.214Z,18.39
2024-05-09T19:04:00.938Z,18.22
2024-05-09T19:06:41.606Z,17.98
2024-05-09T19:09:21.769Z,17.70
2024-05-09T19:12:06.326Z,17.47
2024-05-09T19:14:46.757Z,17.16
2024-05-09T19:17:28.220Z,16.96
2024-05-09T19:20:14.682Z,16.80
2024-05-09T19:23:00.448Z,16.68
2024-05-09T19:25:41.112Z,16.55
2024-05-09T19:28:21.513Z,16.38
2024-05-09T19:31:01.958Z,16.26
2024-05-09T19:33:42.328Z,16.03
2024-05-09T19:36:23.181Z,15.93
2024-05-09T19:39:03.529Z,15.69
2024-05-09T19:41:44.061Z,15.61
2024-05-09T19:44:24.224Z,15.43
2024-05-09T19:47:04.741Z,15.31
2024-05-09T19:49:45.010Z,15.22
2024-05-09T19:52:26.078Z,15.09
2024-05-09T19:55:06.938Z,14.96
2024-05-09T19:57:48.065Z,14.76
2024-05-09T20:00:34.736Z,14.67
2024-05-09T20:03:16.600Z,14.51
2024-05-09T20:05:56.914Z,14.41
2024-05-09T20:08:37.142Z,14.33
2024-05-09T20:11:17.781Z,14.15
2024-05-09T20:13:59.211Z,14.10
2024-05-09T20:16:39.630Z,13.98
2024-05-09T20:19:20.280Z,13.91
2024-05-09T20:22:00.903Z,13.83
2024-05-09T20:24:41.353Z,13.76
2024-05-09T20:27:21.782Z,13.68
2024-05-09T20:30:02.374Z,13.52
2024-05-09T20:32:43.053Z,13.45
2024-05-09T20:35:23.936Z,13.38
2024-05-09T20:38:05.012Z,13.31
2024-05-09T20:40:46.246Z,13.22
2024-05-09T20:43:26.476Z,13.01
2024-05-09T20:46:07.046Z,12.93
2024-05-09T20:48:47.721Z,12.71
2024-05-09T20:51:29.289Z,12.65
2024-05-09T20:54:10.653Z,12.63
2024-05-09T20:56:51.387Z,12.60
2024-05-09T20:59:31.677Z,12.45
2024-05-09T21:02:12.437Z,12.38
2024-05-09T21:04:53.432Z,12.34
2024-05-09T21:07:33.985Z,12.18
2024-05-09T21:10:19.493Z,12.04
2024-05-09T21:13:03.686Z,11.87
2024-05-09T21:15:44.590Z,11.82
2024-05-09T21:18:25.161Z,11.76
2024-05-09T21:21:06.031Z,11.61
2024-05-09T21:23:46.624Z,11.61
2024-05-09T21:26:27.203Z,11.51
2024-05-09T21:29:07.559Z,11.52
2024-05-09T21:31:48.222Z,11.49
2024-05-09T21:34:29.964Z,11.44
2024-05-09T21:37:10.635Z,11.29
2024-05-09T21:39:51.266Z,11.21
2024-05-09T21:42:31.899Z,11.17
2024-05-09T21:45:12.091Z,11.03
2024-05-09T21:47:52.733Z,11.04
2024-05-09T21:50:39.781Z,10.98
2024-05-09T21:53:22.281Z,10.94
2024-05-09T21:56:02.843Z,10.82
2024-05-09T21:58:43.055Z,10.77
2024-05-09T22:01:23.623Z,10.72
2024-05-09T22:04:04.008Z,10.67
2024-05-09T22:06:44.691Z,10.59
2024-05-09T22:09:25.160Z,10.54
2024-05-09T22:12:06.036Z,10.46
2024-05-09T22:14:46.538Z,10.37
2024-05-09T22:17:27.130Z,10.36
2024-05-09T22:20:14.707Z,10.28
2024-05-09T22:22:58.717Z,10.22
2024-05-09T22:25:39.445Z,10.12
2024-05-09T22:28:19.818Z,10.08
2024-05-09T22:31:00.303Z,10.06
2024-05-09T22:33:41.933Z,9.99
2024-05-09T22:36:23.525Z,10.04
2024-05-09T22:39:03.944Z,10.12
2024-05-09T22:41:45.568Z,9.98
2024-05-09T22:44:25.839Z,9.98
2024-05-09T22:47:06.449Z,9.93
2024-05-09T22:49:46.751Z,9.83
2024-05-09T22:52:27.322Z,9.68
2024-05-09T22:55:07.862Z,9.59
2024-05-09T22:57:48.095Z,9.60
2024-05-09T23:00:31.801Z,9.57
2024-05-09T23:03:15.948Z,9.44
2024-05-09T23:05:56.420Z,9.39
2024-05-09T23:08:36.627Z,9.39
2024-05-09T23:11:17.425Z,9.30
2024-05-09T23:13:58.218Z,9.29
2024-05-09T23:16:38.608Z,9.29
2024-05-09T23:19:19.175Z,9.27
2024-05-09T23:21:59.741Z,9.25
2024-05-09T23:24:40.061Z,9.13
2024-05-09T23:27:20.563Z,9.03
2024-05-09T23:30:01.008Z,8.97
2024-05-09T23:32:41.618Z,8.93
2024-05-09T23:35:21.930Z,8.92
2024-05-09T23:38:02.167Z,8.92
2024-05-09T23:40:43.401Z,8.91
2024-05-09T23:43:24.085Z,8.95
2024-05-09T23:46:04.627Z,8.92
2024-05-09T23:48:45.036Z,9.01
2024-05-09T23:51:25.668Z,9.06
2024-05-09T23:54:07.963Z,8.86
2024-05-09T23:56:48.633Z,8.74
2024-05-09T23:59:29.014Z,8.66
